sensor_id;sensor_type;location;lat;lon;timestamp;temperature;humidity
3350;DHT22;1688;51.000;13.684;2023-08-17T00:00:43;24.00;99.90
3350;DHT22;1688;51.000;13.684;2023-08-17T00:03:16;24.00;99.90
3350;DHT22;1688;51.000;13.684;2023-08-17T00:05:49;24.00;99.90
3350;DHT22;1688;51.000;13.684;2023-08-17T00:08:22;24.00;99.90
3350;DHT22;1688;51.000;13.684;2023-08-17T00:10:55;23.90;99.90
3350;DHT22;1688;51.000;13.684;2023-08-17T00:13:28;23.90;99.90
3350;DHT22;1688;51.000;13.684;2023-08-17T00:16:00;23.90;99.90
3350;DHT22;1688;51.000;13.684;2023-08-17T00:18:34;23.90;99.90
3350;DHT22;1688;51.000;13.684;2023-08-17T00:21:07;23.90;99.90
3350;DHT22;1688;51.000;13.684;2023-08-17T00:23:40;23.90;99.90
3350;DHT22;1688;51.000;13.684;2023-08-17T00:26:12;23.80;99.90
3350;DHT22;1688;51.000;13.684;2023-08-17T00:28:46;23.80;99.90
3350;DHT22;1688;51.000;13.684;2023-08-17T00:31:19;23.70;99.90
3350;DHT22;1688;51.000;13.684;2023-08-17T00:33:52;23.70;99.90
3350;DHT22;1688;51.000;13.684;2023-08-17T00:36:25;23.60;99.90
3350;DHT22;1688;51.000;13.684;2023-08-17T00:38:58;23.60;99.90
3350;DHT22;1688;51.000;13.684;2023-08-17T00:41:30;23.50;99.90
3350;DHT22;1688;51.000;13.684;2023-08-17T00:44:04;23.40;99.90
3350;DHT22;1688;51.000;13.684;2023-08-17T00:46:38;23.40;99.90
3350;DHT22;1688;51.000;13.684;2023-08-17T00:49:11;23.40;99.90
3350;DHT22;1688;51.000;13.684;2023-08-17T00:51:43;23.40;99.90
3350;DHT22;1688;51.000;13.684;2023-08-17T00:54:23;23.40;99.90
3350;DHT22;1688;51.000;13.684;2023-08-17T00:56:56;23.40;99.90
3350;DHT22;1688;51.000;13.684;2023-08-17T00:59:29;23.30;99.90
3350;DHT22;1688;51.000;13.684;2023-08-17T01:02:08;23.30;99.90
3350;DHT22;1688;51.000;13.684;2023-08-17T01:04:41;23.20;99.90
3350;DHT22;1688;51.000;13.684;2023-08-17T01:07:14;23.10;99.90
3350;DHT22;1688;51.000;13.684;2023-08-17T01:09:47;23.10;99.90
3350;DHT22;1688;51.000;13.684;2023-08-17T01:12:31;23.00;99.90
3350;DHT22;1688;51.000;13.684;2023-08-17T01:15:11;23.10;99.90
3350;DHT22;1688;51.000;13.684;2023-08-17T01:20:31;23.00;99.90
3350;DHT22;1688;51.000;13.684;2023-08-17T01:23:07;22.90;99.90
3350;DHT22;1688;51.000;13.684;2023-08-17T01:25:40;22.90;99.90
3350;DHT22;1688;51.000;13.684;2023-08-17T01:28:13;23.00;99.90
3350;DHT22;1688;51.000;13.684;2023-08-17T01:36:24;22.90;99.90
3350;DHT22;1688;51.000;13.684;2023-08-17T01:38:59;22.90;99.90
3350;DHT22;1688;51.000;13.684;2023-08-17T01:41:35;22.90;99.90
3350;DHT22;1688;51.000;13.684;2023-08-17T01:44:08;22.90;99.90
3350;DHT22;1688;51.000;13.684;2023-08-17T01:46:42;22.80;99.90
3350;DHT22;1688;51.000;13.684;2023-08-17T01:49:15;22.70;99.90
3350;DHT22;1688;51.000;13.684;2023-08-17T01:51:47;22.80;99.90
3350;DHT22;1688;51.000;13.684;2023-08-17T01:54:20;22.70;99.90
3350;DHT22;1688;51.000;13.684;2023-08-17T01:56:54;22.70;99.90
3350;DHT22;1688;51.000;13.684;2023-08-17T01:59:26;22.70;99.90
3350;DHT22;1688;51.000;13.684;2023-08-17T02:01:59;22.70;99.90
3350;DHT22;1688;51.000;13.684;2023-08-17T02:04:32;22.70;99.90
3350;DHT22;1688;51.000;13.684;2023-08-17T02:07:05;22.70;99.90
3350;DHT22;1688;51.000;13.684;2023-08-17T02:09:38;22.70;99.90
3350;DHT22;1688;51.000;13.684;2023-08-17T02:12:10;22.70;99.90
3350;DHT22;1688;51.000;13.684;2023-08-17T02:14:43;22.60;99.90
3350;DHT22;1688;51.000;13.684;2023-08-17T02:17:16;22.40;99.90
3350;DHT22;1688;51.000;13.684;2023-08-17T02:19:49;22.30;99.90
3350;DHT22;1688;51.000;13.684;2023-08-17T02:22:22;22.20;99.90
3350;DHT22;1688;51.000;13.684;2023-08-17T02:24:54;22.10;99.90
3350;DHT22;1688;51.000;13.684;2023-08-17T02:27:27;22.00;99.90
3350;DHT22;1688;51.000;13.684;2023-08-17T02:30:04;22.10;99.90
3350;DHT22;1688;51.000;13.684;2023-08-17T02:32:36;22.10;99.90
3350;DHT22;1688;51.000;13.684;2023-08-17T02:35:10;22.10;99.90
3350;DHT22;1688;51.000;13.684;2023-08-17T02:37:42;21.90;99.90
3350;DHT22;1688;51.000;13.684;2023-08-17T02:40:15;21.90;99.90
3350;DHT22;1688;51.000;13.684;2023-08-17T02:42:48;21.70;99.90
3350;DHT22;1688;51.000;13.684;2023-08-17T02:45:21;21.60;99.90
3350;DHT22;1688;51.000;13.684;2023-08-17T02:47:54;21.70;99.90
3350;DHT22;1688;51.000;13.684;2023-08-17T02:50:27;21.80;99.90
3350;DHT22;1688;51.000;13.684;2023-08-17T02:53:00;21.90;99.90
3350;DHT22;1688;51.000;13.684;2023-08-17T02:55:34;21.90;99.90
3350;DHT22;1688;51.000;13.684;2023-08-17T02:58:07;22.00;99.90
3350;DHT22;1688;51.000;13.684;2023-08-17T03:00:40;22.00;99.90
3350;DHT22;1688;51.000;13.684;2023-08-17T03:03:13;22.00;99.90
3350;DHT22;1688;51.000;13.684;2023-08-17T03:05:46;22.10;99.90
3350;DHT22;1688;51.000;13.684;2023-08-17T03:08:19;22.00;99.90
3350;DHT22;1688;51.000;13.684;2023-08-17T03:10:51;22.10;99.90
3350;DHT22;1688;51.000;13.684;2023-08-17T03:13:24;22.10;99.90
3350;DHT22;1688;51.000;13.684;2023-08-17T03:15:57;22.00;99.90
3350;DHT22;1688;51.000;13.684;2023-08-17T03:18:30;22.10;99.90
3350;DHT22;1688;51.000;13.684;2023-08-17T03:21:03;22.00;99.90
3350;DHT22;1688;51.000;13.684;2023-08-17T03:23:36;22.10;99.90
3350;DHT22;1688;51.000;13.684;2023-08-17T03:26:08;22.20;99.90
3350;DHT22;1688;51.000;13.684;2023-08-17T03:28:41;22.20;99.90
3350;DHT22;1688;51.000;13.684;2023-08-17T03:31:14;22.10;99.90
3350;DHT22;1688;51.000;13.684;2023-08-17T03:33:48;22.10;99.90
3350;DHT22;1688;51.000;13.684;2023-08-17T03:36:21;22.10;99.90
3350;DHT22;1688;51.000;13.684;2023-08-17T03:38:54;22.10;99.90
3350;DHT22;1688;51.000;13.684;2023-08-17T03:41:26;22.10;99.90
3350;DHT22;1688;51.000;13.684;2023-08-17T03:43:59;22.00;99.90
3350;DHT22;1688;51.000;13.684;2023-08-17T03:46:32;22.10;99.90
3350;DHT22;1688;51.000;13.684;2023-08-17T03:49:06;22.00;99.90
3350;DHT22;1688;51.000;13.684;2023-08-17T03:51:39;22.00;99.90
3350;DHT22;1688;51.000;13.684;2023-08-17T03:54:15;22.00;99.90
3350;DHT22;1688;51.000;13.684;2023-08-17T03:56:47;22.00;99.90
3350;DHT22;1688;51.000;13.684;2023-08-17T03:59:20;21.90;99.90
3350;DHT22;1688;51.000;13.684;2023-08-17T04:01:53;21.90;99.90
3350;DHT22;1688;51.000;13.684;2023-08-17T04:04:26;21.90;99.90
3350;DHT22;1688;51.000;13.684;2023-08-17T04:07:00;21.90;99.90
3350;DHT22;1688;51.000;13.684;2023-08-17T04:09:32;21.90;99.90
3350;DHT22;1688;51.000;13.684;2023-08-17T04:12:06;21.90;99.90
3350;DHT22;1688;51.000;13.684;2023-08-17T04:14:39;21.90;99.90
3350;DHT22;1688;51.000;13.684;2023-08-17T04:17:12;21.90;99.90
3350;DHT22;1688;51.000;13.684;2023-08-17T04:19:45;21.90;99.90
3350;DHT22;1688;51.000;13.684;2023-08-17T04:22:18;21.90;99.90
3350;DHT22;1688;51.000;13.684;2023-08-17T04:24:51;22.00;99.90
3350;DHT22;1688;51.000;13.684;2023-08-17T04:27:24;22.10;99.90
3350;DHT22;1688;51.000;13.684;2023-08-17T04:29:57;22.10;99.90
3350;DHT22;1688;51.000;13.684;2023-08-17T04:32:30;22.10;99.90
3350;DHT22;1688;51.000;13.684;2023-08-17T04:35:03;22.20;99.90
3350;DHT22;1688;51.000;13.684;2023-08-17T04:37:36;22.20;99.90
3350;DHT22;1688;51.000;13.684;2023-08-17T04:40:09;22.20;99.90
3350;DHT22;1688;51.000;13.684;2023-08-17T04:42:42;22.30;99.90
3350;DHT22;1688;51.000;13.684;2023-08-17T04:45:15;22.30;99.90
3350;DHT22;1688;51.000;13.684;2023-08-17T04:47:48;22.40;99.90
3350;DHT22;1688;51.000;13.684;2023-08-17T04:50:21;22.40;99.90
3350;DHT22;1688;51.000;13.684;2023-08-17T04:52:54;22.40;99.90
3350;DHT22;1688;51.000;13.684;2023-08-17T04:55:29;22.40;99.90
3350;DHT22;1688;51.000;13.684;2023-08-17T04:58:02;22.50;99.90
3350;DHT22;1688;51.000;13.684;2023-08-17T05:00:35;22.40;99.90
3350;DHT22;1688;51.000;13.684;2023-08-17T05:03:08;22.40;99.90
3350;DHT22;1688;51.000;13.684;2023-08-17T05:05:55;22.50;99.90
3350;DHT22;1688;51.000;13.684;2023-08-17T05:08:28;22.40;99.90
3350;DHT22;1688;51.000;13.684;2023-08-17T05:11:01;22.50;99.90
3350;DHT22;1688;51.000;13.684;2023-08-17T05:13:34;22.50;99.90
3350;DHT22;1688;51.000;13.684;2023-08-17T05:16:07;22.50;99.90
3350;DHT22;1688;51.000;13.684;2023-08-17T05:18:40;22.50;99.90
3350;DHT22;1688;51.000;13.684;2023-08-17T05:21:13;22.60;99.90
3350;DHT22;1688;51.000;13.684;2023-08-17T05:23:46;22.60;99.90
3350;DHT22;1688;51.000;13.684;2023-08-17T05:26:19;22.50;99.90
3350;DHT22;1688;51.000;13.684;2023-08-17T05:28:52;22.40;99.90
3350;DHT22;1688;51.000;13.684;2023-08-17T05:31:25;22.40;99.90
3350;DHT22;1688;51.000;13.684;2023-08-17T05:33:58;22.40;99.90
3350;DHT22;1688;51.000;13.684;2023-08-17T05:36:31;22.40;99.90
3350;DHT22;1688;51.000;13.684;2023-08-17T05:39:04;22.20;99.90
3350;DHT22;1688;51.000;13.684;2023-08-17T05:41:37;22.30;99.90
3350;DHT22;1688;51.000;13.684;2023-08-17T05:44:10;22.40;99.90
3350;DHT22;1688;51.000;13.684;2023-08-17T05:46:43;22.50;99.90
3350;DHT22;1688;51.000;13.684;2023-08-17T05:49:16;22.70;99.90
3350;DHT22;1688;51.000;13.684;2023-08-17T05:51:49;22.80;99.90
3350;DHT22;1688;51.000;13.684;2023-08-17T05:54:21;22.90;99.90
3350;DHT22;1688;51.000;13.684;2023-08-17T05:56:54;23.00;99.90
3350;DHT22;1688;51.000;13.684;2023-08-17T05:59:27;22.90;99.90
3350;DHT22;1688;51.000;13.684;2023-08-17T06:02:00;23.00;99.90
3350;DHT22;1688;51.000;13.684;2023-08-17T06:04:33;23.00;99.90
3350;DHT22;1688;51.000;13.684;2023-08-17T06:07:06;23.20;99.90
3350;DHT22;1688;51.000;13.684;2023-08-17T06:09:39;23.30;99.90
3350;DHT22;1688;51.000;13.684;2023-08-17T06:12:11;23.40;99.90
3350;DHT22;1688;51.000;13.684;2023-08-17T06:14:44;23.50;99.90
3350;DHT22;1688;51.000;13.684;2023-08-17T06:17:17;23.60;99.90
3350;DHT22;1688;51.000;13.684;2023-08-17T06:19:50;23.70;99.90
3350;DHT22;1688;51.000;13.684;2023-08-17T06:22:29;23.90;99.90
3350;DHT22;1688;51.000;13.684;2023-08-17T06:25:03;24.10;99.90
3350;DHT22;1688;51.000;13.684;2023-08-17T06:27:37;24.10;99.90
3350;DHT22;1688;51.000;13.684;2023-08-17T06:30:11;24.10;99.90
3350;DHT22;1688;51.000;13.684;2023-08-17T06:32:44;24.10;99.90
3350;DHT22;1688;51.000;13.684;2023-08-17T06:35:17;24.00;99.90
3350;DHT22;1688;51.000;13.684;2023-08-17T06:37:50;23.90;99.90
3350;DHT22;1688;51.000;13.684;2023-08-17T06:40:24;23.90;99.90
3350;DHT22;1688;51.000;13.684;2023-08-17T06:42:57;24.00;99.90
3350;DHT22;1688;51.000;13.684;2023-08-17T06:45:34;24.10;99.90
3350;DHT22;1688;51.000;13.684;2023-08-17T06:48:07;24.20;99.90
3350;DHT22;1688;51.000;13.684;2023-08-17T06:50:40;24.20;99.90
3350;DHT22;1688;51.000;13.684;2023-08-17T06:53:12;24.50;99.90
3350;DHT22;1688;51.000;13.684;2023-08-17T06:55:45;24.70;99.90
3350;DHT22;1688;51.000;13.684;2023-08-17T06:58:18;24.90;99.90
3350;DHT22;1688;51.000;13.684;2023-08-17T07:00:52;25.00;99.90
3350;DHT22;1688;51.000;13.684;2023-08-17T07:03:24;25.10;99.90
3350;DHT22;1688;51.000;13.684;2023-08-17T07:05:57;25.10;99.90
3350;DHT22;1688;51.000;13.684;2023-08-17T07:08:31;25.10;99.90
3350;DHT22;1688;51.000;13.684;2023-08-17T07:11:05;25.10;99.90
3350;DHT22;1688;51.000;13.684;2023-08-17T07:13:41;24.90;99.90
3350;DHT22;1688;51.000;13.684;2023-08-17T07:16:14;24.60;99.90
3350;DHT22;1688;51.000;13.684;2023-08-17T07:18:47;24.50;99.90
3350;DHT22;1688;51.000;13.684;2023-08-17T07:21:20;24.50;99.90
3350;DHT22;1688;51.000;13.684;2023-08-17T07:23:55;24.50;99.90
3350;DHT22;1688;51.000;13.684;2023-08-17T07:26:28;24.30;99.90
3350;DHT22;1688;51.000;13.684;2023-08-17T07:29:01;24.10;99.90
3350;DHT22;1688;51.000;13.684;2023-08-17T07:31:34;23.80;99.90
3350;DHT22;1688;51.000;13.684;2023-08-17T07:34:10;23.70;99.90
3350;DHT22;1688;51.000;13.684;2023-08-17T07:36:43;23.60;99.90
3350;DHT22;1688;51.000;13.684;2023-08-17T07:39:16;23.50;99.90
3350;DHT22;1688;51.000;13.684;2023-08-17T07:41:50;23.40;99.90
3350;DHT22;1688;51.000;13.684;2023-08-17T07:44:23;23.70;99.90
3350;DHT22;1688;51.000;13.684;2023-08-17T07:46:56;24.00;99.90
3350;DHT22;1688;51.000;13.684;2023-08-17T07:49:29;24.10;99.90
3350;DHT22;1688;51.000;13.684;2023-08-17T07:52:04;24.30;99.90
3350;DHT22;1688;51.000;13.684;2023-08-17T07:54:38;24.20;99.90
3350;DHT22;1688;51.000;13.684;2023-08-17T07:57:11;24.30;99.90
3350;DHT22;1688;51.000;13.684;2023-08-17T07:59:44;24.30;99.90
3350;DHT22;1688;51.000;13.684;2023-08-17T08:02:17;24.30;99.90
3350;DHT22;1688;51.000;13.684;2023-08-17T08:04:50;24.20;99.90
3350;DHT22;1688;51.000;13.684;2023-08-17T08:07:23;24.20;99.90
3350;DHT22;1688;51.000;13.684;2023-08-17T08:09:57;24.50;99.90
3350;DHT22;1688;51.000;13.684;2023-08-17T08:12:30;24.90;99.90
3350;DHT22;1688;51.000;13.684;2023-08-17T08:15:03;25.20;99.90
3350;DHT22;1688;51.000;13.684;2023-08-17T08:17:36;25.50;99.90
3350;DHT22;1688;51.000;13.684;2023-08-17T08:20:10;25.70;99.90
3350;DHT22;1688;51.000;13.684;2023-08-17T08:22:43;25.90;99.90
3350;DHT22;1688;51.000;13.684;2023-08-17T08:25:15;26.00;99.90
3350;DHT22;1688;51.000;13.684;2023-08-17T08:27:48;26.10;99.90
3350;DHT22;1688;51.000;13.684;2023-08-17T08:30:21;26.40;99.90
3350;DHT22;1688;51.000;13.684;2023-08-17T08:32:54;26.60;99.90
3350;DHT22;1688;51.000;13.684;2023-08-17T08:35:30;26.60;99.90
3350;DHT22;1688;51.000;13.684;2023-08-17T08:41:50;26.80;99.90
3350;DHT22;1688;51.000;13.684;2023-08-17T08:44:24;27.00;99.90
3350;DHT22;1688;51.000;13.684;2023-08-17T08:46:58;27.10;99.90
3350;DHT22;1688;51.000;13.684;2023-08-17T08:49:32;27.30;99.90
3350;DHT22;1688;51.000;13.684;2023-08-17T08:59:59;27.60;99.90
3350;DHT22;1688;51.000;13.684;2023-08-17T09:02:38;27.60;99.90
3350;DHT22;1688;51.000;13.684;2023-08-17T09:05:12;27.70;99.90
3350;DHT22;1688;51.000;13.684;2023-08-17T09:07:48;27.80;99.90
3350;DHT22;1688;51.000;13.684;2023-08-17T09:10:24;28.00;99.90
3350;DHT22;1688;51.000;13.684;2023-08-17T09:13:04;28.30;99.90
3350;DHT22;1688;51.000;13.684;2023-08-17T09:15:40;28.30;99.90
3350;DHT22;1688;51.000;13.684;2023-08-17T09:18:16;28.40;99.90
3350;DHT22;1688;51.000;13.684;2023-08-17T09:20:52;28.70;99.90
3350;DHT22;1688;51.000;13.684;2023-08-17T09:23:26;28.90;99.90
3350;DHT22;1688;51.000;13.684;2023-08-17T09:26:08;28.80;99.90
3350;DHT22;1688;51.000;13.684;2023-08-17T09:28:42;28.90;99.90
3350;DHT22;1688;51.000;13.684;2023-08-17T09:31:15;29.00;99.90
3350;DHT22;1688;51.000;13.684;2023-08-17T09:33:51;28.60;99.90
3350;DHT22;1688;51.000;13.684;2023-08-17T09:36:30;28.20;99.90
3350;DHT22;1688;51.000;13.684;2023-08-17T09:39:03;27.90;99.90
3350;DHT22;1688;51.000;13.684;2023-08-17T09:41:41;27.70;99.90
3350;DHT22;1688;51.000;13.684;2023-08-17T09:44:16;27.70;99.90
3350;DHT22;1688;51.000;13.684;2023-08-17T09:46:49;27.60;99.90
3350;DHT22;1688;51.000;13.684;2023-08-17T09:49:25;27.60;99.90
3350;DHT22;1688;51.000;13.684;2023-08-17T09:52:01;27.60;99.90
3350;DHT22;1688;51.000;13.684;2023-08-17T09:54:37;27.90;99.90
3350;DHT22;1688;51.000;13.684;2023-08-17T09:57:11;28.40;99.90
3350;DHT22;1688;51.000;13.684;2023-08-17T09:59:44;28.60;99.90
3350;DHT22;1688;51.000;13.684;2023-08-17T10:02:19;28.50;99.90
3350;DHT22;1688;51.000;13.684;2023-08-17T10:04:53;28.50;99.90
3350;DHT22;1688;51.000;13.684;2023-08-17T10:07:30;28.20;99.90
3350;DHT22;1688;51.000;13.684;2023-08-17T10:10:06;28.30;99.90
3350;DHT22;1688;51.000;13.684;2023-08-17T10:15:55;28.70;99.90
3350;DHT22;1688;51.000;13.684;2023-08-17T10:21:36;28.30;99.90
3350;DHT22;1688;51.000;13.684;2023-08-17T10:24:11;28.10;99.90
3350;DHT22;1688;51.000;13.684;2023-08-17T10:26:45;28.40;99.90
3350;DHT22;1688;51.000;13.684;2023-08-17T10:29:19;28.80;99.90
3350;DHT22;1688;51.000;13.684;2023-08-17T10:31:54;28.80;99.90
3350;DHT22;1688;51.000;13.684;2023-08-17T10:34:28;28.90;99.90
3350;DHT22;1688;51.000;13.684;2023-08-17T10:37:01;29.10;99.90
3350;DHT22;1688;51.000;13.684;2023-08-17T10:39:35;28.90;99.90
3350;DHT22;1688;51.000;13.684;2023-08-17T10:42:12;28.80;99.90
3350;DHT22;1688;51.000;13.684;2023-08-17T10:44:47;28.80;99.90
3350;DHT22;1688;51.000;13.684;2023-08-17T10:47:28;28.70;99.90
3350;DHT22;1688;51.000;13.684;2023-08-17T10:50:22;28.90;99.90
3350;DHT22;1688;51.000;13.684;2023-08-17T10:52:55;29.20;99.90
3350;DHT22;1688;51.000;13.684;2023-08-17T10:55:38;29.30;99.90
3350;DHT22;1688;51.000;13.684;2023-08-17T10:58:12;28.90;99.90
3350;DHT22;1688;51.000;13.684;2023-08-17T11:00:54;28.90;99.90
3350;DHT22;1688;51.000;13.684;2023-08-17T11:03:27;29.00;99.90
3350;DHT22;1688;51.000;13.684;2023-08-17T11:06:18;29.30;99.90
3350;DHT22;1688;51.000;13.684;2023-08-17T11:08:55;29.20;99.90
3350;DHT22;1688;51.000;13.684;2023-08-17T11:11:30;29.50;99.90
3350;DHT22;1688;51.000;13.684;2023-08-17T11:14:04;29.90;99.90
3350;DHT22;1688;51.000;13.684;2023-08-17T11:16:37;29.80;99.90
3350;DHT22;1688;51.000;13.684;2023-08-17T11:19:09;29.80;99.90
3350;DHT22;1688;51.000;13.684;2023-08-17T11:21:45;29.60;99.90
3350;DHT22;1688;51.000;13.684;2023-08-17T11:24:19;30.00;99.90
3350;DHT22;1688;51.000;13.684;2023-08-17T11:26:52;30.30;99.90
3350;DHT22;1688;51.000;13.684;2023-08-17T11:29:25;30.40;99.90
3350;DHT22;1688;51.000;13.684;2023-08-17T11:31:58;29.90;99.90
3350;DHT22;1688;51.000;13.684;2023-08-17T11:34:31;29.70;99.90
3350;DHT22;1688;51.000;13.684;2023-08-17T11:37:04;29.70;99.90
3350;DHT22;1688;51.000;13.684;2023-08-17T11:39:37;29.70;99.90
3350;DHT22;1688;51.000;13.684;2023-08-17T11:42:10;29.70;99.90
3350;DHT22;1688;51.000;13.684;2023-08-17T11:44:43;29.70;99.90
3350;DHT22;1688;51.000;13.684;2023-08-17T11:47:16;29.70;99.90
3350;DHT22;1688;51.000;13.684;2023-08-17T11:49:49;29.80;99.90
3350;DHT22;1688;51.000;13.684;2023-08-17T11:52:22;30.10;99.90
3350;DHT22;1688;51.000;13.684;2023-08-17T11:54:59;29.80;99.90
3350;DHT22;1688;51.000;13.684;2023-08-17T11:57:32;29.50;99.90
3350;DHT22;1688;51.000;13.684;2023-08-17T12:00:06;29.30;99.90
3350;DHT22;1688;51.000;13.684;2023-08-17T12:02:39;29.00;99.90
3350;DHT22;1688;51.000;13.684;2023-08-17T12:05:23;28.80;99.90
3350;DHT22;1688;51.000;13.684;2023-08-17T12:07:56;28.80;99.90
3350;DHT22;1688;51.000;13.684;2023-08-17T12:10:30;28.90;99.90
3350;DHT22;1688;51.000;13.684;2023-08-17T12:13:04;29.00;99.90
3350;DHT22;1688;51.000;13.684;2023-08-17T12:15:38;29.30;99.90
3350;DHT22;1688;51.000;13.684;2023-08-17T12:18:10;29.60;99.90
3350;DHT22;1688;51.000;13.684;2023-08-17T12:20:43;29.80;99.90
3350;DHT22;1688;51.000;13.684;2023-08-17T12:23:24;30.00;99.90
3350;DHT22;1688;51.000;13.684;2023-08-17T12:25:57;30.30;99.90
3350;DHT22;1688;51.000;13.684;2023-08-17T12:28:30;30.30;99.90
3350;DHT22;1688;51.000;13.684;2023-08-17T12:31:03;30.10;99.90
3350;DHT22;1688;51.000;13.684;2023-08-17T12:33:36;30.00;99.90
3350;DHT22;1688;51.000;13.684;2023-08-17T12:36:09;30.00;99.90
3350;DHT22;1688;51.000;13.684;2023-08-17T12:38:42;30.10;99.90
3350;DHT22;1688;51.000;13.684;2023-08-17T12:41:17;30.00;99.90
3350;DHT22;1688;51.000;13.684;2023-08-17T12:43:50;30.00;99.90
3350;DHT22;1688;51.000;13.684;2023-08-17T12:46:26;29.90;99.90
3350;DHT22;1688;51.000;13.684;2023-08-17T12:49:04;29.80;99.90
3350;DHT22;1688;51.000;13.684;2023-08-17T12:51:37;29.80;99.90
3350;DHT22;1688;51.000;13.684;2023-08-17T12:54:17;30.00;99.90
3350;DHT22;1688;51.000;13.684;2023-08-17T12:56:50;30.00;99.90
3350;DHT22;1688;51.000;13.684;2023-08-17T12:59:23;30.20;99.90
3350;DHT22;1688;51.000;13.684;2023-08-17T13:01:56;30.40;99.90
3350;DHT22;1688;51.000;13.684;2023-08-17T13:04:29;30.70;99.20
3350;DHT22;1688;51.000;13.684;2023-08-17T13:07:02;31.00;98.10
3350;DHT22;1688;51.000;13.684;2023-08-17T13:09:35;31.30;97.20
3350;DHT22;1688;51.000;13.684;2023-08-17T13:12:07;31.50;95.70
3350;DHT22;1688;51.000;13.684;2023-08-17T13:14:40;31.60;94.50
3350;DHT22;1688;51.000;13.684;2023-08-17T13:17:13;31.80;95.30
3350;DHT22;1688;51.000;13.684;2023-08-17T13:19:49;31.90;93.80
3350;DHT22;1688;51.000;13.684;2023-08-17T13:22:22;31.90;94.00
3350;DHT22;1688;51.000;13.684;2023-08-17T13:24:54;32.10;94.70
3350;DHT22;1688;51.000;13.684;2023-08-17T13:27:27;32.30;93.40
3350;DHT22;1688;51.000;13.684;2023-08-17T13:30:00;32.30;92.80
3350;DHT22;1688;51.000;13.684;2023-08-17T13:32:34;32.40;92.60
3350;DHT22;1688;51.000;13.684;2023-08-17T13:35:07;32.40;90.70
3350;DHT22;1688;51.000;13.684;2023-08-17T13:37:40;32.60;91.10
3350;DHT22;1688;51.000;13.684;2023-08-17T13:40:13;32.70;90.70
3350;DHT22;1688;51.000;13.684;2023-08-17T13:42:46;32.70;91.10
3350;DHT22;1688;51.000;13.684;2023-08-17T13:45:19;32.60;91.00
3350;DHT22;1688;51.000;13.684;2023-08-17T13:47:52;32.50;90.20
3350;DHT22;1688;51.000;13.684;2023-08-17T13:50:25;32.30;91.50
3350;DHT22;1688;51.000;13.684;2023-08-17T13:52:58;32.10;90.90
3350;DHT22;1688;51.000;13.684;2023-08-17T13:55:33;32.00;91.50
3350;DHT22;1688;51.000;13.684;2023-08-17T13:58:06;31.90;91.30
3350;DHT22;1688;51.000;13.684;2023-08-17T14:00:39;31.60;91.90
3350;DHT22;1688;51.000;13.684;2023-08-17T14:03:12;31.20;91.40
3350;DHT22;1688;51.000;13.684;2023-08-17T14:05:45;30.70;92.20
3350;DHT22;1688;51.000;13.684;2023-08-17T14:08:18;30.40;92.00
3350;DHT22;1688;51.000;13.684;2023-08-17T14:10:50;30.00;92.00
3350;DHT22;1688;51.000;13.684;2023-08-17T14:13:23;29.70;92.50
3350;DHT22;1688;51.000;13.684;2023-08-17T14:15:56;29.30;91.90
3350;DHT22;1688;51.000;13.684;2023-08-17T14:18:31;29.10;92.50
3350;DHT22;1688;51.000;13.684;2023-08-17T14:21:04;28.80;93.50
3350;DHT22;1688;51.000;13.684;2023-08-17T14:23:38;28.60;93.60
3350;DHT22;1688;51.000;13.684;2023-08-17T14:26:11;28.60;93.90
3350;DHT22;1688;51.000;13.684;2023-08-17T14:28:44;28.50;94.40
3350;DHT22;1688;51.000;13.684;2023-08-17T14:31:17;28.50;94.60
3350;DHT22;1688;51.000;13.684;2023-08-17T14:33:51;28.40;95.10
3350;DHT22;1688;51.000;13.684;2023-08-17T14:36:23;28.30;96.20
3350;DHT22;1688;51.000;13.684;2023-08-17T14:38:57;28.20;97.50
3350;DHT22;1688;51.000;13.684;2023-08-17T14:41:29;28.10;99.60
3350;DHT22;1688;51.000;13.684;2023-08-17T14:44:05;27.90;99.90
3350;DHT22;1688;51.000;13.684;2023-08-17T14:46:38;27.70;99.90
3350;DHT22;1688;51.000;13.684;2023-08-17T14:49:12;27.80;99.90
3350;DHT22;1688;51.000;13.684;2023-08-17T14:51:45;28.00;99.90
3350;DHT22;1688;51.000;13.684;2023-08-17T14:54:19;28.20;99.90
3350;DHT22;1688;51.000;13.684;2023-08-17T14:56:52;28.40;99.90
3350;DHT22;1688;51.000;13.684;2023-08-17T14:59:28;28.50;99.90
3350;DHT22;1688;51.000;13.684;2023-08-17T15:02:01;28.60;99.90
3350;DHT22;1688;51.000;13.684;2023-08-17T15:04:34;28.80;99.90
3350;DHT22;1688;51.000;13.684;2023-08-17T15:07:10;29.10;99.90
3350;DHT22;1688;51.000;13.684;2023-08-17T15:09:43;29.40;99.90
3350;DHT22;1688;51.000;13.684;2023-08-17T15:12:16;29.60;99.90
3350;DHT22;1688;51.000;13.684;2023-08-17T15:14:49;30.10;99.90
3350;DHT22;1688;51.000;13.684;2023-08-17T15:17:22;30.40;99.00
3350;DHT22;1688;51.000;13.684;2023-08-17T15:19:55;30.60;96.50
3350;DHT22;1688;51.000;13.684;2023-08-17T15:22:28;30.70;95.00
3350;DHT22;1688;51.000;13.684;2023-08-17T15:25:01;30.80;95.90
3350;DHT22;1688;51.000;13.684;2023-08-17T15:27:34;30.60;94.80
3350;DHT22;1688;51.000;13.684;2023-08-17T15:30:07;30.60;94.40
3350;DHT22;1688;51.000;13.684;2023-08-17T15:32:40;30.70;94.90
3350;DHT22;1688;51.000;13.684;2023-08-17T15:35:13;30.70;95.20
3350;DHT22;1688;51.000;13.684;2023-08-17T15:37:46;30.60;95.90
3350;DHT22;1688;51.000;13.684;2023-08-17T15:40:19;30.40;96.50
3350;DHT22;1688;51.000;13.684;2023-08-17T15:42:52;30.30;96.90
3350;DHT22;1688;51.000;13.684;2023-08-17T15:45:25;30.10;97.30
3350;DHT22;1688;51.000;13.684;2023-08-17T15:47:58;29.90;98.00
3350;DHT22;1688;51.000;13.684;2023-08-17T15:50:31;29.60;98.40
3350;DHT22;1688;51.000;13.684;2023-08-17T15:53:04;29.50;98.50
3350;DHT22;1688;51.000;13.684;2023-08-17T15:55:41;29.50;98.80
3350;DHT22;1688;51.000;13.684;2023-08-17T15:58:14;29.50;98.80
3350;DHT22;1688;51.000;13.684;2023-08-17T16:00:47;29.50;98.90
3350;DHT22;1688;51.000;13.684;2023-08-17T16:03:19;29.40;99.10
3350;DHT22;1688;51.000;13.684;2023-08-17T16:05:52;29.40;98.80
3350;DHT22;1688;51.000;13.684;2023-08-17T16:08:25;29.40;99.20
3350;DHT22;1688;51.000;13.684;2023-08-17T16:11:09;29.40;99.30
3350;DHT22;1688;51.000;13.684;2023-08-17T16:13:42;29.40;99.40
3350;DHT22;1688;51.000;13.684;2023-08-17T16:16:18;29.30;99.80
3350;DHT22;1688;51.000;13.684;2023-08-17T16:18:51;29.10;99.90
3350;DHT22;1688;51.000;13.684;2023-08-17T16:21:24;29.10;99.90
3350;DHT22;1688;51.000;13.684;2023-08-17T16:23:57;28.90;99.90
3350;DHT22;1688;51.000;13.684;2023-08-17T16:26:30;28.90;99.90
3350;DHT22;1688;51.000;13.684;2023-08-17T16:29:06;29.00;99.90
3350;DHT22;1688;51.000;13.684;2023-08-17T16:31:39;29.10;99.90
3350;DHT22;1688;51.000;13.684;2023-08-17T16:34:11;29.20;99.90
3350;DHT22;1688;51.000;13.684;2023-08-17T16:36:44;29.20;99.90
3350;DHT22;1688;51.000;13.684;2023-08-17T16:39:17;29.10;99.90
3350;DHT22;1688;51.000;13.684;2023-08-17T16:41:50;29.00;99.90
3350;DHT22;1688;51.000;13.684;2023-08-17T16:44:23;28.90;99.90
3350;DHT22;1688;51.000;13.684;2023-08-17T16:46:59;28.80;99.90
3350;DHT22;1688;51.000;13.684;2023-08-17T16:49:32;28.70;99.90
3350;DHT22;1688;51.000;13.684;2023-08-17T16:52:05;28.80;99.90